Terminal Aerodrome Forecast
Issued by NWS Greer, SC

Home | Current Version | Previous Version | Text Only | Print | Product List | Glossary On
Versions: 1 2 3 4 5 6 7 8 9 10 11 12 13 14 15 16 17 18 19 20 21 22 23 24 25 26 27 28 29 30 31 32 33 34 35 36 37 38 39 40 41 42 43 44 45 46 47 48 49 50
000
FTUS42 KGSP 241300 AAA
TAFAVL
TAF AMD
KAVL 241349Z 2414/2512 00000KT P6SM VCSH BKN005 OVC080
     FM241500 VRB05KT P6SM SCT020 OVC080
      TEMPO 2418/2422 VRB10G15KT 4SM TSRA BKN040CB
     FM242200 35007KT P6SM BKN050
     FM250000 35005KT P6SM BKN045
     FM250900 34003KT 5SM BR BKN003=

USA.gov is the U.S. government's official web portal to all federal, state and local government web resources and services.